createdAt,value
2019-03-03T00:01:44.409Z,186.53
2019-03-03T00:04:12.072Z,193.47
2019-03-03T00:06:40.556Z,183.70
2019-03-03T00:09:09.241Z,197.80
2019-03-03T00:11:38.987Z,177.47
2019-03-03T00:14:06.498Z,193.33
2019-03-03T00:16:34.070Z,181.07
2019-03-03T00:19:01.656Z,187.77
2019-03-03T00:21:29.656Z,196.47
2019-03-03T00:23:57.463Z,183.07
2019-03-03T00:26:24.990Z,183.60
2019-03-03T00:28:52.698Z,181.43
2019-03-03T00:31:34.015Z,179.87
2019-03-03T00:34:01.777Z,181.83
2019-03-03T00:36:49.251Z,177.60
2019-03-03T00:39:27.918Z,179.13
2019-03-03T00:42:18.313Z,171.17
2019-03-03T00:45:09.631Z,186.20
2019-03-03T00:48:08.575Z,164.23
2019-03-03T00:50:45.514Z,159.03
2019-03-03T00:53:19.297Z,170.37
2019-03-03T00:56:05.080Z,167.37
2019-03-03T00:59:10.135Z,172.03
2019-03-03T01:01:43.895Z,165.83
2019-03-03T01:04:42.606Z,185.50
2019-03-03T01:07:29.872Z,165.67
2019-03-03T01:10:09.541Z,173.97
2019-03-03T01:12:59.837Z,157.40
2019-03-03T01:15:45.215Z,163.37
2019-03-03T01:18:41.605Z,162.00
2019-03-03T01:24:21.800Z,182.47
2019-03-03T01:26:49.202Z,156.93
2019-03-03T01:29:17.049Z,177.33
2019-03-03T01:31:44.476Z,159.63
2019-03-03T01:34:12.015Z,172.87
2019-03-03T01:36:39.530Z,154.80
2019-03-03T01:39:07.202Z,166.57
2019-03-03T01:41:35.703Z,156.27
2019-03-03T01:44:03.306Z,163.07
2019-03-03T01:46:30.823Z,154.87
2019-03-03T01:48:59.037Z,155.10
2019-03-03T01:51:26.378Z,158.97
2019-03-03T01:53:53.785Z,162.13
2019-03-03T01:56:21.363Z,168.97
2019-03-03T01:58:48.969Z,170.50
2019-03-03T02:01:16.624Z,156.00
2019-03-03T02:03:44.405Z,160.97
2019-03-03T02:06:12.135Z,158.23
2019-03-03T02:08:40.099Z,148.00
2019-03-03T02:11:07.735Z,153.33
2019-03-03T02:13:35.109Z,137.57
2019-03-03T02:16:04.556Z,144.90
2019-03-03T02:18:32.033Z,147.50
2019-03-03T02:20:59.511Z,142.13
2019-03-03T02:23:27.482Z,163.80
2019-03-03T02:25:54.839Z,144.93
2019-03-03T02:28:22.609Z,155.93
2019-03-03T02:30:50.141Z,140.87
2019-03-03T02:33:17.725Z,156.77
2019-03-03T02:35:45.179Z,143.33
2019-03-03T02:38:12.868Z,142.50
2019-03-03T02:40:40.540Z,142.67
2019-03-03T02:43:08.081Z,147.40
2019-03-03T02:45:35.730Z,149.63
2019-03-03T02:48:04.706Z,140.53
2019-03-03T02:50:32.398Z,141.17
2019-03-03T02:53:00.034Z,145.30
2019-03-03T02:55:27.569Z,148.73
2019-03-03T02:57:55.211Z,151.63
2019-03-03T03:00:22.987Z,164.37
2019-03-03T03:02:52.140Z,145.43
2019-03-03T03:05:39.650Z,142.37
2019-03-03T03:08:11.487Z,143.93
2019-03-03T03:11:15.818Z,135.77
2019-03-03T03:14:02.164Z,130.10
2019-03-03T03:16:38.374Z,146.93
2019-03-03T03:19:22.434Z,149.97
2019-03-03T03:22:16.157Z,146.07
2019-03-03T03:25:03.714Z,149.37
2019-03-03T03:27:50.906Z,142.40
2019-03-03T03:30:31.788Z,141.20
2019-03-03T03:33:30.817Z,134.87
2019-03-03T03:36:32.092Z,136.17
2019-03-03T03:39:19.451Z,142.50
2019-03-03T03:42:05.323Z,137.33
2019-03-03T03:44:52.563Z,132.47
2019-03-03T03:47:25.238Z,132.57
2019-03-03T03:50:13.972Z,149.77
2019-03-03T03:52:58.049Z,130.83
2019-03-03T03:55:49.543Z,124.20
2019-03-03T03:58:48.638Z,126.77
2019-03-03T04:01:28.614Z,129.07
2019-03-03T04:04:22.376Z,138.33
2019-03-03T04:06:56.977Z,127.63
2019-03-03T04:09:39.381Z,154.03
2019-03-03T04:12:13.231Z,130.83
2019-03-03T04:15:04.420Z,152.80
2019-03-03T04:17:45.965Z,126.07
2019-03-03T04:20:40.226Z,127.67
2019-03-03T04:23:30.329Z,123.77
2019-03-03T04:26:12.824Z,128.40
2019-03-03T04:28:47.687Z,129.77
2019-03-03T04:31:35.165Z,135.20
2019-03-03T04:34:25.482Z,145.30
2019-03-03T04:37:12.694Z,134.70
2019-03-03T04:40:03.408Z,143.10
2019-03-03T04:42:39.297Z,126.50
2019-03-03T04:45:18.560Z,124.37
2019-03-03T04:48:16.135Z,124.47
2019-03-03T04:51:03.222Z,130.33
2019-03-03T04:53:56.062Z,126.07
2019-03-03T04:56:43.323Z,138.40
2019-03-03T04:59:25.323Z,133.07
2019-03-03T05:02:22.059Z,128.50
2019-03-03T05:05:08.169Z,132.37
2019-03-03T05:07:42.869Z,138.07
2019-03-03T05:10:17.893Z,125.47
2019-03-03T05:12:56.566Z,131.20
2019-03-03T05:15:42.297Z,122.70
2019-03-03T05:18:32.081Z,134.67
2019-03-03T05:20:59.715Z,120.97
2019-03-03T05:23:27.111Z,132.30
2019-03-03T05:25:54.616Z,134.67
2019-03-03T05:28:22.103Z,121.10
2019-03-03T05:30:50.524Z,126.50
2019-03-03T05:33:18.237Z,122.30
2019-03-03T05:35:45.882Z,121.47
2019-03-03T05:38:13.484Z,118.07
2019-03-03T05:40:41.048Z,122.83
2019-03-03T05:43:08.614Z,124.47
2019-03-03T05:45:36.477Z,129.87
2019-03-03T05:48:04.065Z,123.23
2019-03-03T05:50:31.686Z,123.33
2019-03-03T05:52:59.700Z,124.63
2019-03-03T05:55:27.322Z,131.70
2019-03-03T05:57:59.293Z,124.97
2019-03-03T06:00:26.978Z,133.10
2019-03-03T06:02:55.154Z,130.27
2019-03-03T06:05:22.512Z,123.03
2019-03-03T06:07:50.446Z,129.90
2019-03-03T06:10:17.910Z,125.20
2019-03-03T06:12:45.432Z,129.70
2019-03-03T06:15:15.114Z,125.37
2019-03-03T06:17:43.280Z,123.90
2019-03-03T06:20:11.165Z,122.93
2019-03-03T06:22:38.751Z,127.17
2019-03-03T06:25:06.770Z,124.40
2019-03-03T06:27:34.332Z,121.90
2019-03-03T06:30:02.245Z,131.77
2019-03-03T06:32:30.943Z,131.97
2019-03-03T06:34:58.956Z,123.77
2019-03-03T06:37:27.390Z,129.27
2019-03-03T06:39:54.815Z,130.00
2019-03-03T06:42:22.155Z,121.47
2019-03-03T06:44:50.120Z,132.27
2019-03-03T06:47:17.820Z,123.57
2019-03-03T06:49:45.405Z,137.90
2019-03-03T06:52:12.891Z,125.13
2019-03-03T06:54:42.301Z,124.07
2019-03-03T06:57:09.785Z,132.50
2019-03-03T06:59:37.910Z,133.23
2019-03-03T07:02:05.723Z,129.87
2019-03-03T07:04:33.231Z,133.63
2019-03-03T07:07:00.736Z,123.07
2019-03-03T07:09:28.301Z,144.63
2019-03-03T07:11:56.040Z,119.87
2019-03-03T07:14:23.582Z,132.30
2019-03-03T07:16:50.964Z,130.60
2019-03-03T07:19:18.701Z,135.67
2019-03-03T07:21:46.242Z,128.37
2019-03-03T07:24:13.805Z,129.67
2019-03-03T07:26:41.492Z,122.93
2019-03-03T07:29:08.968Z,139.87
2019-03-03T07:31:36.639Z,124.43
2019-03-03T07:34:04.717Z,133.20
2019-03-03T07:36:32.331Z,120.23
2019-03-03T07:39:00.181Z,128.33
2019-03-03T07:41:27.511Z,128.77
2019-03-03T07:43:55.150Z,121.17
2019-03-03T07:46:22.691Z,128.53
2019-03-03T07:48:51.300Z,125.97
2019-03-03T07:51:18.753Z,122.13
2019-03-03T07:53:46.141Z,123.73
2019-03-03T07:56:14.622Z,125.40
2019-03-03T07:58:42.449Z,138.63
2019-03-03T08:01:09.797Z,126.90
2019-03-03T08:03:37.314Z,119.50
2019-03-03T08:06:04.959Z,124.77
2019-03-03T08:08:33.477Z,125.37
2019-03-03T08:11:01.545Z,129.30
2019-03-03T08:13:29.173Z,124.77
2019-03-03T08:15:56.696Z,123.43
2019-03-03T08:18:24.397Z,148.07
2019-03-03T08:20:53.518Z,128.60
2019-03-03T08:23:20.945Z,129.07
2019-03-03T08:25:48.571Z,134.87
2019-03-03T08:28:16.098Z,132.57
2019-03-03T08:30:43.894Z,134.17
2019-03-03T08:33:11.460Z,134.37
2019-03-03T08:35:39.034Z,133.40
2019-03-03T08:38:06.613Z,127.53
2019-03-03T08:40:34.215Z,138.70
2019-03-03T08:43:17.872Z,132.77
2019-03-03T08:46:04.212Z,128.73
2019-03-03T08:48:41.046Z,129.33
2019-03-03T08:51:40.518Z,133.60
2019-03-03T08:54:37.772Z,143.23
2019-03-03T08:57:24.960Z,132.07
2019-03-03T09:00:18.320Z,140.57
2019-03-03T09:03:05.542Z,129.53
2019-03-03T09:05:50.988Z,135.10
2019-03-03T09:08:35.388Z,130.17
2019-03-03T09:11:25.024Z,137.27
2019-03-03T09:14:11.792Z,130.77
2019-03-03T09:16:53.192Z,139.23
2019-03-03T09:19:45.087Z,139.33
2019-03-03T09:22:29.071Z,131.80
2019-03-03T09:25:16.842Z,135.73
2019-03-03T09:27:52.591Z,128.30
2019-03-03T09:30:42.843Z,129.53
2019-03-03T09:33:18.986Z,131.33
2019-03-03T09:35:59.650Z,132.67
2019-03-03T09:38:37.591Z,135.57
2019-03-03T09:41:19.174Z,134.00
2019-03-03T09:44:18.732Z,127.33
2019-03-03T09:47:10.170Z,125.73
2019-03-03T09:49:46.467Z,135.00
2019-03-03T09:52:23.862Z,125.70
2019-03-03T09:54:58.356Z,143.73
2019-03-03T09:57:56.687Z,139.97
2019-03-03T10:01:23.231Z,116.70
2019-03-03T10:09:41.151Z,123.33
2019-03-03T10:16:58.432Z,142.13
2019-03-03T10:19:40.266Z,153.37
2019-03-03T10:22:46.155Z,129.57
2019-03-03T10:25:32.637Z,129.73
2019-03-03T10:28:09.249Z,131.17
2019-03-03T10:30:56.469Z,141.70
2019-03-03T10:33:51.548Z,138.70
2019-03-03T10:36:39.384Z,142.20
2019-03-03T10:39:24.972Z,150.37
2019-03-03T10:42:12.933Z,142.37
2019-03-03T10:45:04.105Z,148.33
2019-03-03T10:47:57.641Z,132.90
2019-03-03T10:50:45.140Z,133.90
2019-03-03T10:53:25.049Z,127.63
2019-03-03T10:56:13.260Z,130.67
2019-03-03T10:58:57.035Z,125.57
2019-03-03T11:01:33.937Z,124.83
2019-03-03T11:04:44.218Z,138.60
2019-03-03T11:07:20.043Z,127.60
2019-03-03T11:10:19.155Z,138.67
2019-03-03T11:12:54.489Z,124.63
2019-03-03T11:15:47.633Z,128.80
2019-03-03T11:18:38.168Z,142.27
2019-03-03T11:21:19.573Z,133.73
2019-03-03T11:24:05.656Z,145.97
2019-03-03T11:26:41.215Z,129.90
2019-03-03T11:29:28.654Z,145.80
2019-03-03T11:32:16.068Z,136.20
2019-03-03T11:35:05.229Z,138.20
2019-03-03T11:38:10.146Z,128.30
2019-03-03T11:40:56.262Z,123.77
2019-03-03T11:43:45.248Z,134.47
2019-03-03T11:46:36.655Z,126.30
2019-03-03T11:49:30.031Z,133.83
2019-03-03T11:52:16.746Z,131.37
2019-03-03T11:55:00.875Z,136.57
2019-03-03T11:57:51.284Z,128.47
2019-03-03T12:00:51.630Z,134.30
2019-03-03T12:03:28.319Z,134.67
2019-03-03T12:06:09.663Z,125.63
2019-03-03T12:09:03.050Z,122.33
2019-03-03T12:11:40.438Z,128.50
2019-03-03T12:14:26.042Z,136.73
2019-03-03T12:17:05.263Z,125.73
2019-03-03T12:20:01.719Z,127.10
2019-03-03T12:23:05.274Z,123.63
2019-03-03T12:25:51.186Z,124.80
2019-03-03T12:28:33.890Z,123.30
2019-03-03T12:31:24.219Z,121.67
2019-03-03T12:34:02.819Z,116.13
2019-03-03T12:36:40.297Z,119.43
2019-03-03T12:39:15.516Z,128.27
2019-03-03T12:41:57.452Z,125.77
2019-03-03T12:44:39.688Z,132.40
2019-03-03T12:47:26.865Z,137.20
2019-03-03T12:50:04.448Z,143.60
2019-03-03T12:52:44.254Z,122.40
2019-03-03T12:55:18.787Z,134.53
2019-03-03T12:58:05.144Z,129.07
2019-03-03T13:00:52.614Z,131.40
2019-03-03T13:03:31.838Z,131.67
2019-03-03T13:06:08.453Z,138.13
2019-03-03T13:08:59.822Z,126.60
2019-03-03T13:11:45.665Z,127.37
2019-03-03T13:14:30.970Z,132.00
2019-03-03T13:17:17.295Z,126.77
2019-03-03T13:19:54.632Z,136.97
2019-03-03T13:22:46.558Z,125.63
2019-03-03T13:28:38.986Z,125.33
2019-03-03T13:31:17.805Z,129.53
2019-03-03T13:34:09.594Z,121.73
2019-03-03T13:36:59.044Z,118.60
2019-03-03T13:39:55.357Z,143.53
2019-03-03T13:42:31.353Z,130.30
2019-03-03T13:44:58.898Z,130.03
2019-03-03T13:47:26.513Z,129.87
2019-03-03T13:49:57.209Z,129.03
2019-03-03T13:52:24.696Z,126.53
2019-03-03T13:58:02.521Z,130.07
2019-03-03T14:00:30.178Z,143.13
2019-03-03T14:02:59.156Z,131.07
2019-03-03T14:05:26.964Z,136.20
2019-03-03T14:07:54.602Z,138.03
2019-03-03T14:10:25.347Z,132.13
2019-03-03T14:12:53.206Z,134.33
2019-03-03T14:15:24.903Z,143.47
2019-03-03T14:17:52.878Z,131.33
2019-03-03T14:20:21.718Z,129.10
2019-03-03T14:22:50.258Z,129.57
2019-03-03T14:25:17.895Z,140.33
2019-03-03T14:27:45.594Z,121.93
2019-03-03T14:30:16.209Z,127.17
2019-03-03T14:32:43.781Z,125.00
2019-03-03T14:35:12.431Z,130.73
2019-03-03T14:37:40.147Z,134.07
2019-03-03T14:40:09.923Z,134.33
2019-03-03T14:42:37.588Z,133.90
2019-03-03T14:45:09.156Z,155.17
2019-03-03T14:47:37.429Z,134.63
2019-03-03T14:50:06.594Z,125.57
2019-03-03T14:52:34.158Z,126.83
2019-03-03T14:55:01.856Z,128.97
2019-03-03T14:57:29.960Z,121.27
2019-03-03T14:59:57.570Z,133.33
2019-03-03T15:02:25.104Z,124.27
2019-03-03T15:04:52.485Z,135.07
2019-03-03T15:07:19.816Z,131.90
2019-03-03T15:09:50.376Z,140.30
2019-03-03T15:12:18.044Z,126.50
2019-03-03T15:14:45.547Z,140.87
2019-03-03T15:17:14.063Z,135.03
2019-03-03T15:19:41.870Z,132.97
2019-03-03T15:22:09.428Z,145.93
2019-03-03T15:24:37.071Z,146.67
2019-03-03T15:27:04.693Z,139.87
2019-03-03T15:29:32.443Z,139.17
2019-03-03T15:32:00.179Z,130.53
2019-03-03T15:34:27.739Z,143.30
2019-03-03T15:36:55.666Z,137.57
2019-03-03T15:39:23.123Z,148.70
2019-03-03T15:41:50.721Z,136.10
2019-03-03T15:44:18.529Z,143.57
2019-03-03T15:46:46.146Z,138.27
2019-03-03T15:49:13.818Z,140.03
2019-03-03T15:54:56.759Z,142.33
2019-03-03T15:57:24.330Z,143.83
2019-03-03T15:59:51.824Z,149.57
2019-03-03T16:02:19.655Z,146.20
2019-03-03T16:04:47.455Z,161.03
2019-03-03T16:07:14.786Z,143.40
2019-03-03T16:09:42.315Z,176.87
2019-03-03T16:12:09.852Z,147.40
2019-03-03T16:14:37.538Z,147.30
2019-03-03T16:17:05.388Z,141.37
2019-03-03T16:19:33.123Z,142.63
2019-03-03T16:22:00.640Z,136.00
2019-03-03T16:24:28.239Z,154.33
2019-03-03T16:26:55.614Z,132.13
2019-03-03T16:29:23.232Z,144.20
2019-03-03T16:31:50.807Z,132.60
2019-03-03T16:34:18.625Z,151.20
2019-03-03T16:36:46.616Z,132.63
2019-03-03T16:39:14.711Z,149.50
2019-03-03T16:41:42.296Z,142.47
2019-03-03T16:44:10.676Z,150.43
2019-03-03T16:46:40.466Z,143.53
2019-03-03T16:49:08.219Z,149.70
2019-03-03T16:51:37.655Z,149.30
2019-03-03T16:54:06.937Z,145.80
2019-03-03T16:56:36.466Z,136.67
2019-03-03T16:59:06.330Z,152.37
2019-03-03T17:01:33.876Z,136.30
2019-03-03T17:04:02.490Z,149.63
2019-03-03T17:06:30.346Z,142.63
2019-03-03T17:08:58.084Z,143.93
2019-03-03T17:11:26.431Z,135.33
2019-03-03T17:13:54.499Z,137.53
2019-03-03T17:16:21.912Z,141.07
2019-03-03T17:18:49.508Z,140.30
2019-03-03T17:21:17.075Z,132.53
2019-03-03T17:23:44.474Z,145.53
2019-03-03T17:26:12.817Z,141.57
2019-03-03T17:28:40.441Z,133.53
2019-03-03T17:31:08.128Z,137.40
2019-03-03T17:33:35.632Z,133.43
2019-03-03T17:36:03.215Z,132.13
2019-03-03T17:38:31.354Z,142.67
2019-03-03T17:40:58.642Z,121.03
2019-03-03T17:43:26.192Z,135.70
2019-03-03T17:45:53.872Z,136.07
2019-03-03T17:48:21.282Z,142.77
2019-03-03T17:50:49.596Z,131.13
2019-03-03T17:53:17.463Z,135.90
2019-03-03T17:55:45.230Z,151.40
2019-03-03T17:58:13.535Z,138.23
2019-03-03T18:00:42.256Z,136.90
2019-03-03T18:03:09.775Z,142.10
2019-03-03T18:05:39.096Z,139.70
2019-03-03T18:08:07.215Z,137.20
2019-03-03T18:10:34.740Z,135.47
2019-03-03T18:13:04.481Z,139.27
2019-03-03T18:15:34.327Z,140.97
2019-03-03T18:18:02.594Z,137.73
2019-03-03T18:20:30.628Z,139.67
2019-03-03T18:22:59.640Z,142.67
2019-03-03T18:25:27.187Z,121.90
2019-03-03T18:27:54.728Z,145.23
2019-03-03T18:30:23.203Z,123.47
2019-03-03T18:33:20.259Z,144.70
2019-03-03T18:35:48.255Z,131.67
2019-03-03T18:38:15.736Z,134.97
2019-03-03T18:40:43.959Z,131.77
2019-03-03T18:43:13.150Z,133.00
2019-03-03T18:45:40.611Z,132.80
2019-03-03T18:48:08.510Z,129.23
2019-03-03T18:50:36.000Z,139.20
2019-03-03T18:53:04.022Z,133.10
2019-03-03T18:55:31.624Z,124.13
2019-03-03T18:57:59.146Z,134.93
2019-03-03T19:00:26.986Z,131.50
2019-03-03T19:02:55.071Z,142.50
2019-03-03T19:05:29.758Z,112.57
2019-03-03T19:08:00.482Z,153.30
2019-03-03T19:10:29.755Z,148.63
2019-03-03T19:12:58.927Z,149.23
2019-03-03T19:15:28.303Z,134.90
2019-03-03T19:18:01.534Z,139.80
2019-03-03T19:20:33.045Z,152.47
2019-03-03T19:23:00.782Z,135.00
2019-03-03T19:25:28.303Z,136.97
2019-03-03T19:27:57.814Z,125.60
2019-03-03T19:30:25.579Z,129.87
2019-03-03T19:33:19.434Z,136.17
2019-03-03T19:35:47.131Z,135.67
2019-03-03T19:38:14.941Z,132.67
2019-03-03T19:40:43.710Z,133.03
2019-03-03T19:43:11.210Z,135.33
2019-03-03T19:45:38.971Z,129.23
2019-03-03T19:48:07.311Z,136.37
2019-03-03T19:50:34.897Z,122.50
2019-03-03T19:53:02.887Z,133.30
2019-03-03T19:55:30.696Z,127.43
2019-03-03T19:57:58.434Z,134.60
2019-03-03T20:00:35.375Z,130.07
2019-03-03T20:02:58.458Z,155.20
2019-03-03T20:05:26.193Z,129.80
2019-03-03T20:07:54.841Z,125.33
2019-03-03T20:10:22.410Z,128.03
2019-03-03T20:12:50.063Z,136.47
2019-03-03T20:15:17.826Z,132.20
2019-03-03T20:17:46.819Z,134.90
2019-03-03T20:20:15.718Z,137.63
2019-03-03T20:22:43.785Z,129.70
2019-03-03T20:25:11.676Z,141.10
2019-03-03T20:27:39.245Z,128.73
2019-03-03T20:30:10.341Z,134.30
2019-03-03T20:32:43.341Z,125.93
2019-03-03T20:35:11.949Z,131.57
2019-03-03T20:37:40.260Z,131.23
2019-03-03T20:40:11.870Z,170.13
2019-03-03T20:42:39.491Z,124.37
2019-03-03T20:45:10.745Z,123.33
2019-03-03T20:47:42.967Z,125.50
2019-03-03T20:50:17.106Z,129.90
2019-03-03T20:52:44.997Z,119.13
2019-03-03T20:55:14.206Z,118.90
2019-03-03T20:57:42.052Z,115.63
2019-03-03T21:00:16.645Z,119.60
2019-03-03T21:02:47.500Z,118.03
2019-03-03T21:05:15.171Z,132.63
2019-03-03T21:07:50.946Z,132.77
2019-03-03T21:10:17.134Z,125.93
2019-03-03T21:12:44.691Z,123.83
2019-03-03T21:15:12.535Z,129.63
2019-03-03T21:17:40.442Z,131.47
2019-03-03T21:20:10.817Z,126.17
2019-03-03T21:22:40.070Z,128.33
2019-03-03T21:25:09.379Z,136.20
2019-03-03T21:27:37.724Z,134.63
2019-03-03T21:30:13.862Z,117.70
2019-03-03T21:32:41.724Z,121.00
2019-03-03T21:35:09.286Z,130.53
2019-03-03T21:37:36.852Z,122.17
2019-03-03T21:40:09.177Z,118.23
2019-03-03T21:42:37.079Z,119.90
2019-03-03T21:45:06.233Z,124.33
2019-03-03T21:47:33.593Z,115.63
2019-03-03T21:50:01.106Z,123.50
2019-03-03T21:52:28.808Z,118.73
2019-03-03T21:54:56.242Z,123.03
2019-03-03T21:57:23.965Z,121.03
2019-03-03T21:59:51.698Z,127.70
2019-03-03T22:02:19.157Z,120.47
2019-03-03T22:04:46.746Z,137.60
2019-03-03T22:07:14.154Z,125.33
2019-03-03T22:09:42.104Z,126.67
2019-03-03T22:12:09.690Z,129.40
2019-03-03T22:14:37.189Z,130.50
2019-03-03T22:17:04.665Z,118.40
2019-03-03T22:19:32.416Z,123.27
2019-03-03T22:21:59.901Z,123.17
2019-03-03T22:24:27.325Z,124.60
2019-03-03T22:26:55.082Z,123.97
2019-03-03T22:29:22.948Z,137.47
2019-03-03T22:31:50.412Z,132.03
2019-03-03T22:34:18.792Z,134.33
2019-03-03T22:36:46.180Z,140.23
2019-03-03T22:39:14.007Z,136.53
2019-03-03T22:41:42.058Z,124.77
2019-03-03T22:44:09.604Z,133.30
2019-03-03T22:46:36.958Z,127.17
2019-03-03T22:49:04.607Z,131.53
2019-03-03T22:51:32.073Z,126.33
2019-03-03T22:53:59.459Z,125.67
2019-03-03T22:56:26.927Z,119.13
2019-03-03T22:58:54.375Z,117.87
2019-03-03T23:01:33.498Z,129.13
2019-03-03T23:05:06.779Z,134.53
2019-03-03T23:08:10.443Z,120.70
2019-03-03T23:11:23.589Z,111.90
2019-03-03T23:14:44.443Z,131.50
2019-03-03T23:18:00.446Z,123.13
2019-03-03T23:20:49.049Z,116.87
2019-03-03T23:24:16.371Z,117.20
2019-03-03T23:26:44.905Z,122.73
2019-03-03T23:29:12.222Z,120.17
2019-03-03T23:31:39.712Z,114.60
2019-03-03T23:34:07.213Z,123.03
2019-03-03T23:36:34.936Z,119.73
2019-03-03T23:39:04.700Z,120.83
2019-03-03T23:41:34.198Z,119.33
2019-03-03T23:44:01.714Z,128.83
2019-03-03T23:46:29.501Z,123.77
2019-03-03T23:48:57.064Z,126.97
2019-03-03T23:51:24.583Z,125.60
2019-03-03T23:53:51.937Z,123.70
2019-03-03T23:56:19.322Z,135.63
2019-03-03T23:58:46.926Z,121.03
